Aérodrome :
LOGIN :

S'inscrire | Disclaimer

   EN    FR    IT 

 










Légende :    VFR   VFR Marginal   IFR   IFR Intensif   IFR Très Intensif
Visi : 
Plafond : 
>= 8 km
>= 3000ft
5 à 8 km
1000 à 3000 ft
1500m à 5 km
500 à 1000 ft
800 à 1500m
200 à 500 ft
< 800m
< 200 ft
Symboles :   Orages  Brouillard  Fortes neiges  Fortes précipitations  Vent > 20 kt
SIGMETs :   Divers  Orages  Givrage  Turbulence  Onde Orograph.  Cendres Volcan.







- Altitude de l'aérodrome : 607 ft
- Code IATA : BCM


LRBC - Bacău

DERNIER METAR :
  • 170400Z 34013KT CAVOK 17/11 Q1014

METARs EXPIRÉS :
  • 170330Z 34012KT CAVOK 17/10 Q1013
  • 170300Z 34011KT CAVOK 16/11 Q1013
  • 170230Z 35011KT CAVOK 15/10 Q1013
  • 170200Z 34003KT CAVOK 14/10 Q1012
  • 170130Z 27003KT 230V300 CAVOK 13/09 Q1012

TAF TAF LRBC
Valide du 17 à 03h jusqu'au 17 à 12h UTC


170200Z 1703/1712 VRB04KT 9999 SCT035
BECMG 1703/1705 34010KT
Pas de NOTAMs connus pour ce terrain.



MET'MAP, la Météo Aéronautique d'un coup d'oeil ! - Copyright ORBIFLY Décembre 2007 - Disclaimer

ORBIFLY MET'MAP TEAM :

Programmation & Développement : Alexandra Zaïnal
Conception & Développement : Baudouin d'Aumeries
Co-Programmation & Développement : Marc-Olivier Méhu
Soutien technique & logistique : Manuel Goepfert

Contact : metmap@orbifly.com




SOURCES & CREDITS :

   NOAA